createdAt,value
2017-08-23T00:01:22.224Z,16.60
2017-08-23T00:03:49.172Z,16.70
2017-08-23T00:06:16.051Z,16.80
2017-08-23T00:08:42.946Z,16.90
2017-08-23T00:11:09.899Z,17.00
2017-08-23T00:13:36.767Z,17.10
2017-08-23T00:16:03.736Z,17.10
2017-08-23T00:18:30.626Z,17.00
2017-08-23T00:20:57.607Z,17.00
2017-08-23T00:23:24.541Z,17.00
2017-08-23T00:25:51.424Z,16.80
2017-08-23T00:28:18.422Z,16.80
2017-08-23T00:30:45.313Z,16.90
2017-08-23T00:33:12.185Z,16.80
2017-08-23T00:35:39.202Z,16.90
2017-08-23T00:38:06.078Z,16.90
2017-08-23T00:40:33.770Z,16.80
2017-08-23T00:43:00.653Z,16.80
2017-08-23T00:45:27.634Z,16.70
2017-08-23T00:47:54.561Z,16.40
2017-08-23T00:50:21.500Z,16.50
2017-08-23T00:52:48.551Z,16.50
2017-08-23T00:55:15.528Z,16.40
2017-08-23T00:57:43.288Z,16.50
2017-08-23T01:00:10.247Z,16.50
2017-08-23T01:02:37.963Z,16.40
2017-08-23T01:05:04.867Z,16.40
2017-08-23T01:07:31.750Z,16.30
2017-08-23T01:09:58.705Z,16.10
2017-08-23T01:12:25.579Z,16.10
2017-08-23T01:14:52.538Z,16.20
2017-08-23T01:17:19.421Z,16.00
2017-08-23T01:19:46.295Z,16.00
2017-08-23T01:22:13.402Z,15.90
2017-08-23T01:24:40.269Z,15.80
2017-08-23T01:27:07.162Z,15.90
2017-08-23T01:29:36.145Z,15.80
2017-08-23T01:32:03.885Z,15.80
2017-08-23T01:34:30.809Z,15.80
2017-08-23T01:36:57.867Z,15.70
2017-08-23T01:39:24.755Z,15.70
2017-08-23T01:41:51.638Z,15.70
2017-08-23T01:44:18.608Z,15.70
2017-08-23T01:46:45.573Z,15.80
2017-08-23T01:49:12.460Z,15.80
2017-08-23T01:51:40.179Z,15.80
2017-08-23T01:54:07.184Z,15.80
2017-08-23T01:56:34.195Z,15.90
2017-08-23T01:59:01.060Z,15.70
2017-08-23T02:01:28.008Z,15.70
2017-08-23T02:03:54.901Z,15.70
2017-08-23T02:06:21.821Z,15.40
2017-08-23T02:08:48.740Z,15.30
2017-08-23T02:11:15.643Z,15.30
2017-08-23T02:13:42.595Z,15.40
2017-08-23T02:16:09.455Z,15.40
2017-08-23T02:18:36.421Z,15.40
2017-08-23T02:21:03.291Z,15.40
2017-08-23T02:23:30.159Z,15.30
2017-08-23T02:25:57.097Z,15.30
2017-08-23T02:28:24.049Z,15.30
2017-08-23T02:30:50.931Z,15.30
2017-08-23T02:33:17.831Z,15.30
2017-08-23T02:35:44.784Z,15.40
2017-08-23T02:38:11.697Z,15.50
2017-08-23T02:40:38.576Z,15.60
2017-08-23T02:43:05.560Z,15.50
2017-08-23T02:45:33.244Z,15.70
2017-08-23T02:48:00.141Z,15.70
2017-08-23T02:50:27.077Z,15.70
2017-08-23T02:52:53.983Z,15.70
2017-08-23T02:55:21.012Z,15.90
2017-08-23T02:57:48.024Z,15.80
2017-08-23T03:00:15.006Z,15.90
2017-08-23T03:02:42.686Z,16.00
2017-08-23T03:05:09.567Z,15.90
2017-08-23T03:07:36.527Z,16.00
2017-08-23T03:10:03.401Z,15.90
2017-08-23T03:12:30.302Z,15.80
2017-08-23T03:14:57.279Z,15.80
2017-08-23T03:17:24.162Z,15.70
2017-08-23T03:19:51.036Z,15.70
2017-08-23T03:22:17.994Z,15.60
2017-08-23T03:24:44.865Z,15.50
2017-08-23T03:27:11.741Z,15.50
2017-08-23T03:29:38.703Z,15.40
2017-08-23T03:32:05.657Z,15.30
2017-08-23T03:34:32.613Z,15.20
2017-08-23T03:36:59.572Z,15.30
2017-08-23T03:39:26.444Z,15.30
2017-08-23T03:41:53.396Z,15.40
2017-08-23T03:44:20.294Z,15.50
2017-08-23T03:46:47.255Z,15.40
2017-08-23T03:49:14.215Z,15.40
2017-08-23T03:51:41.074Z,15.40
2017-08-23T03:54:08.016Z,15.20
2017-08-23T03:56:34.995Z,15.10
2017-08-23T03:59:02.596Z,15.10
2017-08-23T04:01:29.471Z,15.10
2017-08-23T04:03:56.451Z,15.10
2017-08-23T04:06:23.393Z,15.20
2017-08-23T04:08:50.308Z,15.20
2017-08-23T04:11:17.186Z,15.30
2017-08-23T04:13:44.231Z,15.20
2017-08-23T04:16:11.113Z,15.20
2017-08-23T04:18:38.103Z,15.30
2017-08-23T04:21:05.072Z,15.20
2017-08-23T04:23:32.024Z,15.20
2017-08-23T04:26:03.396Z,15.20
2017-08-23T04:28:30.413Z,15.30
2017-08-23T04:30:58.168Z,15.50
2017-08-23T04:33:25.802Z,15.50
2017-08-23T04:35:52.696Z,15.50
2017-08-23T04:38:19.649Z,15.60
2017-08-23T04:40:46.596Z,15.60
2017-08-23T04:43:13.645Z,15.60
2017-08-23T04:45:40.532Z,15.60
2017-08-23T04:48:07.472Z,15.70
2017-08-23T04:50:34.372Z,15.70
2017-08-23T04:53:01.264Z,15.70
2017-08-23T04:55:28.201Z,15.70
2017-08-23T04:57:57.501Z,15.80
2017-08-23T05:00:24.481Z,15.80
2017-08-23T05:02:52.213Z,15.80
2017-08-23T05:05:19.141Z,15.80
2017-08-23T05:07:46.131Z,15.90
2017-08-23T05:10:13.036Z,16.00
2017-08-23T05:12:39.943Z,15.90
2017-08-23T05:15:06.940Z,16.00
2017-08-23T05:17:33.867Z,16.00
2017-08-23T05:20:00.846Z,16.00
2017-08-23T05:22:27.751Z,16.00
2017-08-23T05:24:54.649Z,16.00
2017-08-23T05:27:21.612Z,16.10
2017-08-23T05:29:49.225Z,15.90
2017-08-23T05:32:16.092Z,15.90
2017-08-23T05:34:43.093Z,16.10
2017-08-23T05:37:09.952Z,16.30
2017-08-23T05:39:38.384Z,16.50
2017-08-23T05:42:06.429Z,16.50
2017-08-23T05:44:33.316Z,16.40
2017-08-23T05:47:01.002Z,16.60
2017-08-23T05:49:27.884Z,16.60
2017-08-23T05:51:54.843Z,16.70
2017-08-23T05:54:21.776Z,16.50
2017-08-23T05:56:48.717Z,16.20
2017-08-23T05:59:15.682Z,16.10
2017-08-23T06:01:42.599Z,16.30
2017-08-23T06:04:09.470Z,16.10
2017-08-23T06:06:36.435Z,16.30
2017-08-23T06:09:03.506Z,16.20
2017-08-23T06:11:30.497Z,16.20
2017-08-23T06:13:57.404Z,16.00
2017-08-23T06:16:24.301Z,16.00
2017-08-23T06:18:51.269Z,16.10
2017-08-23T06:21:18.163Z,16.20
2017-08-23T06:23:45.071Z,16.40
2017-08-23T06:26:12.025Z,16.20
2017-08-23T06:28:38.918Z,16.00
2017-08-23T06:31:05.812Z,16.10
2017-08-23T06:33:33.650Z,16.40
2017-08-23T06:36:00.522Z,16.30
2017-08-23T06:38:27.406Z,16.10
2017-08-23T06:40:54.333Z,15.90
2017-08-23T06:43:21.212Z,16.40
2017-08-23T06:45:48.172Z,16.50
2017-08-23T06:48:15.776Z,16.50
2017-08-23T06:50:42.776Z,16.30
2017-08-23T06:53:09.777Z,16.20
2017-08-23T06:55:36.639Z,16.20
2017-08-23T06:58:03.584Z,16.60
2017-08-23T07:00:30.517Z,17.00
2017-08-23T07:02:57.400Z,17.70
2017-08-23T07:05:24.283Z,17.40
2017-08-23T07:07:52.046Z,17.60
2017-08-23T07:10:19.008Z,17.70
2017-08-23T07:12:46.634Z,17.80
2017-08-23T07:15:13.496Z,17.70
2017-08-23T07:17:40.459Z,17.50
2017-08-23T07:20:08.602Z,18.00
2017-08-23T07:22:35.553Z,18.00
2017-08-23T07:25:02.496Z,18.20
2017-08-23T07:27:29.451Z,18.70
2017-08-23T07:29:56.399Z,19.20
2017-08-23T07:32:23.262Z,18.70
2017-08-23T07:34:50.946Z,19.40
2017-08-23T07:37:17.802Z,19.30
2017-08-23T07:39:44.775Z,20.40
2017-08-23T07:42:11.666Z,20.00
2017-08-23T07:44:38.620Z,20.10
2017-08-23T07:47:05.536Z,20.60
2017-08-23T07:49:32.485Z,20.20
2017-08-23T07:51:59.412Z,19.90
2017-08-23T07:54:26.302Z,20.20
2017-08-23T07:56:53.338Z,19.30
2017-08-23T07:59:20.947Z,20.70
2017-08-23T08:01:47.822Z,20.70
2017-08-23T08:04:14.748Z,20.60
2017-08-23T08:06:41.619Z,21.00
2017-08-23T08:09:08.635Z,21.90
2017-08-23T08:11:35.584Z,21.80
2017-08-23T08:14:02.529Z,22.20
2017-08-23T08:16:29.412Z,21.50
2017-08-23T08:18:57.095Z,22.40
2017-08-23T08:21:23.983Z,22.40
2017-08-23T08:23:51.059Z,23.90
2017-08-23T08:26:18.040Z,25.20
2017-08-23T08:28:45.051Z,25.70
2017-08-23T08:31:12.799Z,25.60
2017-08-23T08:33:39.887Z,25.60
2017-08-23T08:36:06.898Z,26.00
2017-08-23T08:38:34.800Z,27.40
2017-08-23T08:41:01.813Z,27.40
2017-08-23T08:43:28.837Z,26.60
2017-08-23T08:45:55.926Z,27.30
2017-08-23T08:48:22.950Z,28.20
2017-08-23T08:50:49.963Z,28.40
2017-08-23T08:53:17.064Z,27.20
2017-08-23T08:55:44.090Z,27.60
2017-08-23T08:58:11.094Z,28.50
2017-08-23T09:00:38.248Z,30.60
2017-08-23T09:03:05.261Z,30.70
2017-08-23T09:05:32.286Z,31.20
2017-08-23T09:07:59.392Z,30.70
2017-08-23T09:10:26.438Z,31.00
2017-08-23T09:12:53.569Z,32.10
2017-08-23T09:15:20.546Z,31.00
2017-08-23T09:17:47.607Z,33.40
2017-08-23T09:20:14.740Z,32.50
2017-08-23T09:22:41.607Z,32.80
2017-08-23T09:25:08.474Z,34.00
2017-08-23T09:27:35.574Z,33.00
2017-08-23T09:30:02.617Z,33.20
2017-08-23T09:32:29.695Z,30.00
2017-08-23T09:34:56.740Z,30.10
2017-08-23T09:37:23.632Z,30.30
2017-08-23T09:39:50.921Z,31.20
2017-08-23T09:42:18.544Z,29.70
2017-08-23T09:44:45.525Z,29.70
2017-08-23T09:47:12.477Z,30.10
2017-08-23T09:49:40.098Z,30.30
2017-08-23T09:52:06.977Z,30.30
2017-08-23T09:54:37.751Z,29.90
2017-08-23T09:57:08.263Z,29.70
2017-08-23T09:59:38.043Z,28.70
2017-08-23T10:02:05.453Z,29.00
2017-08-23T10:04:38.344Z,26.60
2017-08-23T10:07:08.454Z,27.60
2017-08-23T10:09:37.973Z,27.20
2017-08-23T10:12:05.276Z,26.90
2017-08-23T10:14:35.327Z,27.60
2017-08-23T10:17:04.179Z,26.60
2017-08-23T10:19:31.975Z,27.70
2017-08-23T10:21:59.089Z,27.70
2017-08-23T10:24:26.227Z,27.90
2017-08-23T10:26:53.319Z,27.50
2017-08-23T10:29:23.603Z,27.10
2017-08-23T10:31:52.906Z,28.10
2017-08-23T10:34:19.852Z,27.50
2017-08-23T10:36:46.831Z,26.80
2017-08-23T10:39:14.713Z,26.50
2017-08-23T10:41:41.772Z,26.50
2017-08-23T10:44:09.715Z,25.70
2017-08-23T10:46:36.698Z,26.50
2017-08-23T10:49:03.599Z,27.30
2017-08-23T10:51:31.945Z,26.80
2017-08-23T10:53:58.884Z,26.80
2017-08-23T10:56:25.806Z,27.90
2017-08-23T10:58:52.808Z,27.90
2017-08-23T11:01:19.958Z,27.90
2017-08-23T11:03:46.892Z,28.20
2017-08-23T11:06:13.897Z,28.70
2017-08-23T11:08:40.879Z,27.60
2017-08-23T11:11:11.003Z,27.60
2017-08-23T11:13:38.011Z,27.50
2017-08-23T11:16:04.960Z,28.40
2017-08-23T11:18:31.886Z,28.10
2017-08-23T11:20:59.643Z,27.80
2017-08-23T11:23:26.553Z,27.80
2017-08-23T11:25:53.516Z,27.90
2017-08-23T11:28:20.465Z,28.30
2017-08-23T11:30:48.129Z,28.40
2017-08-23T11:33:15.289Z,28.40
2017-08-23T11:35:57.069Z,28.50
2017-08-23T11:38:40.505Z,28.40
2017-08-23T11:41:09.046Z,28.50
2017-08-23T11:43:36.287Z,27.90
2017-08-23T11:46:03.375Z,28.00
2017-08-23T11:48:30.580Z,28.70
2017-08-23T11:50:57.774Z,29.10
2017-08-23T11:53:24.711Z,28.90
2017-08-23T11:55:51.696Z,29.00
2017-08-23T11:58:18.770Z,29.50
2017-08-23T12:00:45.765Z,29.30
2017-08-23T12:03:12.741Z,29.80
2017-08-23T12:05:42.346Z,30.00
2017-08-23T12:08:09.660Z,29.90
2017-08-23T12:10:36.754Z,29.80
2017-08-23T12:15:43.151Z,29.50
2017-08-23T12:18:10.389Z,29.90
2017-08-23T12:20:37.571Z,30.20
2017-08-23T12:23:04.925Z,30.10
2017-08-23T12:25:31.977Z,29.50
2017-08-23T12:28:01.752Z,29.80
2017-08-23T12:30:28.745Z,29.50
2017-08-23T12:32:56.887Z,29.40
2017-08-23T12:35:33.489Z,29.50
2017-08-23T12:38:00.697Z,29.70
2017-08-23T12:40:28.070Z,29.40
2017-08-23T12:42:57.941Z,29.50
2017-08-23T12:45:28.063Z,29.50
2017-08-23T12:47:55.082Z,29.80
2017-08-23T12:50:22.113Z,29.40
2017-08-23T12:52:49.321Z,29.90
2017-08-23T12:55:17.636Z,29.40
2017-08-23T12:57:44.657Z,29.80
2017-08-23T13:00:11.552Z,30.00
2017-08-23T13:02:38.431Z,29.20
2017-08-23T13:05:05.407Z,29.00
2017-08-23T13:07:37.330Z,28.20
2017-08-23T13:13:03.899Z,28.60
2017-08-23T13:15:48.555Z,29.30
2017-08-23T13:24:14.049Z,29.50
2017-08-23T13:26:59.408Z,29.00
2017-08-23T13:29:47.874Z,29.00
2017-08-23T13:32:35.752Z,29.40
2017-08-23T13:35:19.485Z,29.60
2017-08-23T13:38:04.211Z,29.60
2017-08-23T13:40:43.058Z,28.90
2017-08-23T13:45:56.389Z,28.70
2017-08-23T13:48:23.320Z,29.00
2017-08-23T13:50:51.185Z,29.40
2017-08-23T13:53:18.190Z,29.40
2017-08-23T13:55:45.077Z,29.50
2017-08-23T13:58:11.985Z,29.10
2017-08-23T14:00:39.067Z,29.00
2017-08-23T14:03:06.024Z,28.80
2017-08-23T14:05:32.950Z,29.30
2017-08-23T14:07:59.900Z,29.50
2017-08-23T14:10:26.785Z,29.00
2017-08-23T14:12:54.503Z,29.30
2017-08-23T14:15:21.434Z,29.30
2017-08-23T14:17:48.413Z,29.30
2017-08-23T14:20:15.293Z,29.60
2017-08-23T14:22:42.926Z,29.60
2017-08-23T14:25:09.856Z,29.60
2017-08-23T14:27:36.764Z,29.70
2017-08-23T14:30:03.713Z,29.60
2017-08-23T14:32:30.763Z,29.40
2017-08-23T14:34:58.184Z,28.90
2017-08-23T14:37:25.980Z,29.40
2017-08-23T14:39:52.928Z,29.40
2017-08-23T14:42:20.584Z,29.30
2017-08-23T14:44:47.666Z,29.20
2017-08-23T14:47:14.571Z,28.90
2017-08-23T14:49:41.547Z,28.50
2017-08-23T14:52:08.534Z,28.90
2017-08-23T14:54:35.481Z,28.70
2017-08-23T14:57:02.462Z,28.80
2017-08-23T14:59:29.370Z,28.50
2017-08-23T15:01:56.352Z,28.70
2017-08-23T15:04:23.365Z,28.70
2017-08-23T15:06:50.269Z,28.80
2017-08-23T15:09:17.284Z,29.00
2017-08-23T15:11:45.079Z,28.90
2017-08-23T15:14:12.023Z,28.90
2017-08-23T15:16:39.137Z,29.20
2017-08-23T15:19:06.104Z,29.40
2017-08-23T15:21:33.822Z,29.40
2017-08-23T15:24:00.824Z,29.30
2017-08-23T15:26:27.718Z,29.50
2017-08-23T15:28:54.610Z,29.30
2017-08-23T15:31:21.567Z,29.30
2017-08-23T15:33:48.520Z,28.90
2017-08-23T15:36:15.476Z,29.10
2017-08-23T15:38:42.366Z,29.10
2017-08-23T15:41:09.341Z,29.10
2017-08-23T15:43:36.339Z,29.10
2017-08-23T15:46:03.411Z,29.10
2017-08-23T15:48:30.376Z,29.00
2017-08-23T15:50:58.100Z,28.80
2017-08-23T15:53:25.020Z,28.70
2017-08-23T15:55:51.941Z,28.60
2017-08-23T15:58:18.989Z,28.80
2017-08-23T16:00:46.674Z,28.70
2017-08-23T16:03:13.685Z,28.70
2017-08-23T16:05:49.476Z,28.80
2017-08-23T16:08:20.911Z,28.90
2017-08-23T16:10:51.040Z,28.80
2017-08-23T16:13:18.361Z,28.80
2017-08-23T16:15:50.404Z,28.70
2017-08-23T16:18:20.339Z,28.80
2017-08-23T16:20:48.866Z,28.70
2017-08-23T16:23:17.830Z,28.70
2017-08-23T16:25:47.381Z,28.70
2017-08-23T16:28:16.056Z,28.70
2017-08-23T16:30:43.396Z,28.70
2017-08-23T16:33:10.422Z,28.60
2017-08-23T16:35:37.360Z,28.40
2017-08-23T16:38:05.095Z,28.40
2017-08-23T16:40:33.866Z,28.30
2017-08-23T16:43:00.905Z,28.30
2017-08-23T16:45:30.429Z,28.40
2017-08-23T16:47:57.496Z,28.50
2017-08-23T16:50:24.527Z,28.50
2017-08-23T16:52:51.574Z,28.50
2017-08-23T16:55:18.564Z,28.40
2017-08-23T16:57:46.331Z,28.60
2017-08-23T17:00:13.332Z,28.60
2017-08-23T17:02:40.932Z,28.70
2017-08-23T17:05:08.733Z,28.60
2017-08-23T17:07:35.696Z,28.60
2017-08-23T17:10:04.756Z,28.50
2017-08-23T17:12:32.121Z,28.50
2017-08-23T17:14:59.064Z,28.40
2017-08-23T17:17:25.972Z,28.20
2017-08-23T17:19:52.938Z,28.20
2017-08-23T17:22:19.936Z,28.20
2017-08-23T17:24:47.942Z,28.10
2017-08-23T17:27:14.947Z,28.10
2017-08-23T17:29:41.958Z,28.00
2017-08-23T17:32:08.884Z,27.80
2017-08-23T17:34:35.874Z,27.60
2017-08-23T17:37:04.065Z,27.40
2017-08-23T17:39:32.612Z,27.30
2017-08-23T17:42:00.347Z,27.00
2017-08-23T17:44:27.371Z,27.00
2017-08-23T17:46:54.451Z,26.80
2017-08-23T17:49:26.589Z,26.80
2017-08-23T17:51:55.043Z,26.40
2017-08-23T17:54:22.020Z,26.40
2017-08-23T17:56:48.958Z,26.30
2017-08-23T17:59:15.984Z,26.00
2017-08-23T18:01:42.966Z,25.90
2017-08-23T18:04:09.999Z,25.70
2017-08-23T18:06:36.978Z,25.60
2017-08-23T18:09:04.145Z,25.60
2017-08-23T18:11:31.972Z,25.30
2017-08-23T18:14:00.370Z,25.30
2017-08-23T18:16:27.353Z,25.20
2017-08-23T18:18:55.085Z,25.10
2017-08-23T18:21:22.108Z,25.10
2017-08-23T18:23:49.050Z,25.00
2017-08-23T18:26:16.029Z,24.80
2017-08-23T18:28:42.928Z,24.70
2017-08-23T18:31:09.888Z,24.50
2017-08-23T18:33:36.768Z,24.40
2017-08-23T18:36:03.668Z,24.40
2017-08-23T18:38:30.659Z,24.20
2017-08-23T18:40:57.552Z,24.20
2017-08-23T18:43:24.488Z,24.10
2017-08-23T18:45:52.217Z,23.90
2017-08-23T18:48:19.207Z,23.90
2017-08-23T18:50:46.179Z,23.80
2017-08-23T18:53:13.106Z,23.70
2017-08-23T18:55:40.063Z,23.70
2017-08-23T18:58:07.030Z,23.60
2017-08-23T19:00:34.780Z,23.50
2017-08-23T19:03:01.641Z,23.50
2017-08-23T19:05:28.515Z,23.40
2017-08-23T19:07:55.573Z,23.40
2017-08-23T19:10:23.233Z,23.30
2017-08-23T19:12:50.198Z,23.30
2017-08-23T19:15:17.955Z,23.20
2017-08-23T19:17:45.576Z,23.20
2017-08-23T19:20:12.630Z,23.20
2017-08-23T19:22:39.546Z,23.20
2017-08-23T19:25:06.457Z,23.20
2017-08-23T19:27:34.160Z,23.20
2017-08-23T19:30:01.062Z,23.20
2017-08-23T19:32:28.765Z,23.10
2017-08-23T19:34:55.665Z,23.10
2017-08-23T19:37:22.544Z,23.00
2017-08-23T19:39:49.521Z,22.90
2017-08-23T19:42:16.433Z,22.90
2017-08-23T19:44:43.377Z,22.80
2017-08-23T19:47:10.265Z,22.80
2017-08-23T19:49:37.143Z,22.80
2017-08-23T19:52:04.105Z,22.70
2017-08-23T19:54:31.720Z,22.60
2017-08-23T19:56:58.649Z,22.60
2017-08-23T19:59:25.589Z,22.60
2017-08-23T20:01:52.460Z,22.50
2017-08-23T20:04:19.421Z,22.40
2017-08-23T20:06:46.336Z,22.30
2017-08-23T20:09:13.234Z,22.30
2017-08-23T20:11:40.892Z,22.20
2017-08-23T20:14:08.571Z,22.10
2017-08-23T20:16:35.548Z,22.00
2017-08-23T20:19:02.421Z,22.00
2017-08-23T20:21:29.273Z,21.90
2017-08-23T20:23:56.219Z,21.80
2017-08-23T20:26:23.109Z,21.70
2017-08-23T20:28:49.976Z,21.70
2017-08-23T20:31:16.911Z,21.80
2017-08-23T20:33:43.808Z,21.80
2017-08-23T20:36:10.805Z,21.80
2017-08-23T20:38:37.700Z,21.80
2017-08-23T20:41:04.602Z,21.70
2017-08-23T20:43:31.614Z,21.60
2017-08-23T20:45:59.287Z,21.40
2017-08-23T20:48:26.232Z,21.40
2017-08-23T20:50:53.177Z,21.40
2017-08-23T20:53:20.058Z,21.40
2017-08-23T20:55:47.089Z,21.40
2017-08-23T20:58:13.968Z,21.40
2017-08-23T21:00:40.964Z,21.40
2017-08-23T21:03:07.861Z,21.30
2017-08-23T21:05:35.448Z,21.40
2017-08-23T21:08:02.462Z,21.40
2017-08-23T21:10:29.359Z,21.40
2017-08-23T21:12:56.301Z,21.40
2017-08-23T21:15:23.896Z,21.40
2017-08-23T21:17:50.761Z,21.30
2017-08-23T21:20:17.700Z,21.40
2017-08-23T21:22:44.587Z,21.30
2017-08-23T21:25:12.386Z,21.30
2017-08-23T21:27:39.363Z,21.20
2017-08-23T21:30:06.239Z,21.30
2017-08-23T21:32:33.203Z,21.20
2017-08-23T21:35:00.811Z,21.30
2017-08-23T21:37:27.680Z,21.20
2017-08-23T21:39:54.617Z,21.20
2017-08-23T21:42:21.501Z,21.20
2017-08-23T21:44:49.120Z,21.10
2017-08-23T21:47:16.303Z,21.10
2017-08-23T21:49:43.923Z,21.00
2017-08-23T21:52:10.869Z,21.00
2017-08-23T21:54:37.814Z,21.00
2017-08-23T21:57:04.737Z,21.00
2017-08-23T21:59:31.669Z,21.10
2017-08-23T22:01:58.972Z,21.10
2017-08-23T22:04:25.838Z,21.00
2017-08-23T22:06:52.728Z,21.00
2017-08-23T22:09:19.672Z,21.00
2017-08-23T22:11:46.536Z,21.00
2017-08-23T22:14:13.486Z,20.90
2017-08-23T22:16:40.402Z,20.90
2017-08-23T22:19:07.433Z,20.90
2017-08-23T22:21:34.301Z,20.90
2017-08-23T22:24:01.181Z,20.90
2017-08-23T22:26:28.111Z,20.80
2017-08-23T22:28:54.990Z,20.80
2017-08-23T22:31:21.961Z,20.80
2017-08-23T22:33:49.555Z,20.50
2017-08-23T22:36:16.442Z,20.50
2017-08-23T22:38:43.392Z,20.50
2017-08-23T22:41:10.276Z,20.50
2017-08-23T22:43:37.260Z,20.50
2017-08-23T22:46:04.145Z,20.40
2017-08-23T22:48:31.773Z,20.30
2017-08-23T22:50:58.708Z,20.30
2017-08-23T22:53:25.657Z,20.40
2017-08-23T22:55:52.533Z,20.50
2017-08-23T22:58:19.475Z,20.50
2017-08-23T23:00:46.358Z,20.50
2017-08-23T23:03:13.250Z,20.50
2017-08-23T23:05:40.195Z,20.60
2017-08-23T23:08:07.057Z,20.50
2017-08-23T23:10:33.922Z,20.50
2017-08-23T23:13:03.735Z,20.50
2017-08-23T23:15:32.905Z,20.40
2017-08-23T23:17:59.924Z,20.50
2017-08-23T23:20:27.624Z,20.50
2017-08-23T23:22:56.576Z,20.50
2017-08-23T23:25:23.490Z,20.50
2017-08-23T23:27:50.361Z,20.60
2017-08-23T23:30:17.277Z,20.50
2017-08-23T23:32:44.908Z,20.50
2017-08-23T23:35:11.785Z,20.50
2017-08-23T23:37:38.732Z,20.50
2017-08-23T23:40:05.615Z,20.40
2017-08-23T23:42:32.563Z,20.50
2017-08-23T23:44:59.433Z,20.40
2017-08-23T23:47:26.287Z,20.40
2017-08-23T23:49:53.229Z,20.20
2017-08-23T23:52:20.170Z,20.30
2017-08-23T23:54:47.045Z,20.20
2017-08-23T23:57:14.730Z,20.00
2017-08-23T23:59:41.656Z,20.00
